createdAt,value
2022-09-20T00:03:39.303Z,10.16
2022-09-20T00:08:39.685Z,10.28
2022-09-20T00:13:39.219Z,10.42
2022-09-20T00:18:39.161Z,10.56
2022-09-20T00:23:39.174Z,10.69
2022-09-20T00:28:39.266Z,10.82
2022-09-20T00:33:57.388Z,10.92
2022-09-20T00:38:57.191Z,11.01
2022-09-20T00:43:57.216Z,11.09
2022-09-20T00:48:57.168Z,11.15
2022-09-20T00:53:57.213Z,11.19
2022-09-20T00:58:58.879Z,11.23
2022-09-20T01:03:59.220Z,11.27
2022-09-20T01:09:01.101Z,11.32
2022-09-20T01:14:01.296Z,11.34
2022-09-20T01:19:01.242Z,11.37
2022-09-20T01:24:01.239Z,11.41
2022-09-20T01:29:01.328Z,11.45
2022-09-20T01:34:01.558Z,11.50
2022-09-20T01:39:01.279Z,11.54
2022-09-20T01:44:01.226Z,11.57
2022-09-20T01:49:01.227Z,11.59
2022-09-20T01:54:01.239Z,11.61
2022-09-20T01:59:22.807Z,11.60
2022-09-20T02:04:03.257Z,11.55
2022-09-20T02:09:03.248Z,11.51
2022-09-20T02:14:03.348Z,11.48
2022-09-20T02:19:03.275Z,11.47
2022-09-20T02:24:03.255Z,11.43
2022-09-20T02:29:03.343Z,11.37
2022-09-20T02:34:03.293Z,11.32
2022-09-20T02:39:03.292Z,11.26
2022-09-20T02:44:03.281Z,11.21
2022-09-20T02:49:03.290Z,11.18
2022-09-20T02:54:03.272Z,11.19
2022-09-20T02:59:03.398Z,11.19
2022-09-20T03:04:03.344Z,11.20
2022-09-20T03:09:03.300Z,11.24
2022-09-20T03:14:03.345Z,11.29
2022-09-20T03:19:03.301Z,11.34
2022-09-20T03:24:03.290Z,11.39
2022-09-20T03:29:03.661Z,11.44
2022-09-20T03:34:03.360Z,11.49
2022-09-20T03:39:03.328Z,11.51
2022-09-20T03:44:03.413Z,11.50
2022-09-20T03:49:03.552Z,11.46
2022-09-20T03:54:03.308Z,11.44
2022-09-20T03:59:03.329Z,11.43
2022-09-20T04:04:03.365Z,11.45
2022-09-20T04:09:03.363Z,11.47
2022-09-20T04:14:05.916Z,11.45
2022-09-20T04:19:06.958Z,11.44
2022-09-20T04:24:07.338Z,11.44
2022-09-20T04:29:09.298Z,11.46
2022-09-20T04:34:09.332Z,11.47
2022-09-20T04:39:09.473Z,11.50
2022-09-20T04:44:09.393Z,11.55
2022-09-20T04:49:10.056Z,11.60
2022-09-20T04:54:10.660Z,11.65
2022-09-20T04:59:10.389Z,11.69
2022-09-20T05:04:10.442Z,11.70
2022-09-20T05:09:10.786Z,11.70
2022-09-20T05:14:13.274Z,11.71
2022-09-20T05:19:13.400Z,11.73
2022-09-20T05:24:13.702Z,11.75
2022-09-20T05:29:14.079Z,11.77
2022-09-20T05:34:14.856Z,11.81
2022-09-20T05:39:14.369Z,11.87
2022-09-20T05:44:14.373Z,11.97
2022-09-20T05:49:14.475Z,12.08
2022-09-20T05:54:14.459Z,12.20
2022-09-20T05:59:14.655Z,12.32
2022-09-20T06:04:14.664Z,12.43
2022-09-20T06:09:14.402Z,12.56
2022-09-20T06:14:14.727Z,12.73
2022-09-20T06:19:16.347Z,12.87
2022-09-20T06:24:17.258Z,13.06
2022-09-20T06:29:17.423Z,13.29
2022-09-20T06:34:17.455Z,13.52
2022-09-20T06:39:35.966Z,13.72
2022-09-20T06:44:35.755Z,13.93
2022-09-20T06:49:36.031Z,14.15
2022-09-20T06:54:37.434Z,14.37
2022-09-20T06:59:37.927Z,14.60
2022-09-20T07:04:37.503Z,14.85
2022-09-20T07:09:38.031Z,15.22
2022-09-20T07:14:38.464Z,15.65
2022-09-20T07:19:38.431Z,15.98
2022-09-20T07:24:40.177Z,16.03
2022-09-20T07:29:40.893Z,16.02
2022-09-20T07:34:40.919Z,16.15
2022-09-20T07:39:41.346Z,16.30
2022-09-20T07:44:43.458Z,16.48
2022-09-20T07:49:43.463Z,16.78
2022-09-20T07:54:45.568Z,17.24
2022-09-20T07:59:45.517Z,18.81
2022-09-20T08:04:45.671Z,20.87
2022-09-20T08:09:45.494Z,21.69
2022-09-20T08:14:45.529Z,22.34
2022-09-20T08:19:45.494Z,23.65
2022-09-20T08:24:46.619Z,25.05
2022-09-20T08:29:46.510Z,25.29
2022-09-20T08:34:49.262Z,24.99
2022-09-20T08:39:57.931Z,24.60
2022-09-20T08:44:59.629Z,24.41
2022-09-20T08:49:58.288Z,24.36
2022-09-20T08:54:59.364Z,25.20
2022-09-20T09:00:01.849Z,26.50
2022-09-20T09:05:03.150Z,25.68
2022-09-20T09:10:03.693Z,23.88
2022-09-20T09:15:04.118Z,22.22
2022-09-20T09:20:03.848Z,20.75
2022-09-20T09:25:04.765Z,19.55
2022-09-20T09:30:05.934Z,18.81
2022-09-20T09:35:06.325Z,18.52
2022-09-20T09:40:07.464Z,18.46
2022-09-20T09:45:07.824Z,18.68
2022-09-20T09:50:09.966Z,19.99
2022-09-20T09:55:10.134Z,21.14
2022-09-20T10:00:17.865Z,20.51
2022-09-20T10:05:18.010Z,19.64
2022-09-20T10:10:17.581Z,18.57
2022-09-20T10:15:17.676Z,17.70
2022-09-20T10:20:17.635Z,17.69
2022-09-20T10:25:17.606Z,18.36
2022-09-20T10:30:17.616Z,19.28
2022-09-20T10:35:17.689Z,20.02
2022-09-20T10:40:17.701Z,20.21
2022-09-20T10:45:36.302Z,20.12
2022-09-20T10:50:19.825Z,20.15
2022-09-20T10:55:20.216Z,20.27
2022-09-20T11:00:20.756Z,20.26
2022-09-20T11:05:20.689Z,20.30
2022-09-20T11:10:21.522Z,20.57
2022-09-20T11:15:21.712Z,20.89
2022-09-20T11:20:21.645Z,21.19
2022-09-20T11:25:24.988Z,21.56
2022-09-20T11:30:23.650Z,21.97
2022-09-20T11:35:24.716Z,22.19
2022-09-20T11:40:24.809Z,22.11
2022-09-20T11:45:28.325Z,22.10
2022-09-20T11:50:28.600Z,22.27
2022-09-20T11:55:28.700Z,22.45
2022-09-20T12:00:29.615Z,22.54
2022-09-20T12:05:29.740Z,22.59
2022-09-20T12:10:30.201Z,22.76
2022-09-20T12:15:30.520Z,22.82
2022-09-20T12:20:30.692Z,22.62
2022-09-20T12:25:30.810Z,22.01
2022-09-20T12:30:32.600Z,21.02
2022-09-20T12:35:34.440Z,20.05
2022-09-20T12:40:34.791Z,19.36
2022-09-20T12:45:34.753Z,19.04
2022-09-20T12:50:52.885Z,19.01
2022-09-20T12:55:54.621Z,19.28
2022-09-20T13:00:55.354Z,19.69
2022-09-20T13:05:56.240Z,19.89
2022-09-20T13:10:56.989Z,19.74
2022-09-20T13:15:56.682Z,19.45
2022-09-20T13:20:56.755Z,19.15
2022-09-20T13:25:58.165Z,18.90
2022-09-20T13:30:57.841Z,18.83
2022-09-20T13:35:58.329Z,18.98
2022-09-20T13:41:00.223Z,19.16
2022-09-20T13:45:59.907Z,19.29
2022-09-20T13:50:59.827Z,19.42
2022-09-20T13:55:59.813Z,19.47
2022-09-20T14:00:59.885Z,19.34
2022-09-20T14:05:59.847Z,19.09
2022-09-20T14:10:59.800Z,18.84
2022-09-20T14:15:59.796Z,18.67
2022-09-20T14:20:59.814Z,18.78
2022-09-20T14:26:00.022Z,19.06
2022-09-20T14:30:59.791Z,19.24
2022-09-20T14:36:00.573Z,19.31
2022-09-20T14:41:00.808Z,19.26
2022-09-20T14:46:01.284Z,19.15
2022-09-20T14:51:01.096Z,19.02
2022-09-20T14:56:00.938Z,18.84
2022-09-20T15:01:02.257Z,18.60
2022-09-20T15:06:01.961Z,18.38
2022-09-20T15:11:01.827Z,18.25
2022-09-20T15:16:01.944Z,18.20
2022-09-20T15:21:01.824Z,18.16
2022-09-20T15:26:02.049Z,18.06
2022-09-20T15:31:01.947Z,17.91
2022-09-20T15:36:02.005Z,17.71
2022-09-20T15:41:03.102Z,17.52
2022-09-20T15:46:03.388Z,17.36
2022-09-20T15:51:03.839Z,17.24
2022-09-20T15:56:03.863Z,17.17
2022-09-20T16:01:04.855Z,17.15
2022-09-20T16:06:05.032Z,17.19
2022-09-20T16:11:04.854Z,17.24
2022-09-20T16:16:04.972Z,17.26
2022-09-20T16:21:05.011Z,17.26
2022-09-20T16:26:04.902Z,17.23
2022-09-20T16:31:07.960Z,17.18
2022-09-20T16:36:08.008Z,17.12
2022-09-20T16:41:07.888Z,17.04
2022-09-20T16:46:09.038Z,16.94
2022-09-20T16:51:08.886Z,16.80
2022-09-20T16:56:08.994Z,16.63
2022-09-20T17:01:09.119Z,16.43
2022-09-20T17:06:09.063Z,16.21
2022-09-20T17:11:09.821Z,15.96
2022-09-20T17:16:09.983Z,15.72
2022-09-20T17:21:10.186Z,15.53
2022-09-20T17:26:11.202Z,15.39
2022-09-20T17:31:11.098Z,15.29
2022-09-20T17:36:11.156Z,15.21
2022-09-20T17:41:10.958Z,15.14
2022-09-20T17:46:10.942Z,15.07
2022-09-20T17:51:12.699Z,15.01
2022-09-20T17:56:12.978Z,14.95
2022-09-20T18:01:13.782Z,14.88
2022-09-20T18:06:14.297Z,14.80
2022-09-20T18:11:14.020Z,14.69
2022-09-20T18:16:14.030Z,14.57
2022-09-20T18:21:14.001Z,14.44
2022-09-20T18:26:23.192Z,14.31
2022-09-20T18:31:23.036Z,14.19
2022-09-20T18:36:25.166Z,14.07
2022-09-20T18:41:25.578Z,13.95
2022-09-20T18:46:26.573Z,13.83
2022-09-20T18:51:28.659Z,13.70
2022-09-20T18:56:29.071Z,13.55
2022-09-20T19:01:29.105Z,13.38
2022-09-20T19:06:29.013Z,13.21
2022-09-20T19:11:29.006Z,13.05
2022-09-20T19:16:30.056Z,12.90
2022-09-20T19:21:29.982Z,12.75
2022-09-20T19:26:30.074Z,12.59
2022-09-20T19:31:30.054Z,12.44
2022-09-20T19:36:30.093Z,12.32
2022-09-20T19:41:30.007Z,12.23
2022-09-20T19:46:30.149Z,12.17
2022-09-20T19:51:31.442Z,12.13
2022-09-20T19:56:31.614Z,12.09
2022-09-20T20:01:32.378Z,12.03
2022-09-20T20:06:32.099Z,11.99
2022-09-20T20:11:31.998Z,11.94
2022-09-20T20:16:33.135Z,11.90
2022-09-20T20:21:34.913Z,11.87
2022-09-20T20:26:35.585Z,11.83
2022-09-20T20:31:35.323Z,11.79
2022-09-20T20:36:35.110Z,11.75
2022-09-20T20:41:35.098Z,11.70
2022-09-20T20:46:35.793Z,11.64
2022-09-20T20:51:36.682Z,11.56
2022-09-20T20:56:37.033Z,11.45
2022-09-20T21:01:37.180Z,11.34
2022-09-20T21:06:37.127Z,11.24
2022-09-20T21:11:37.057Z,11.17
2022-09-20T21:16:37.073Z,11.14
2022-09-20T21:21:38.010Z,11.15
2022-09-20T21:26:38.058Z,11.16
2022-09-20T21:31:38.164Z,11.15
2022-09-20T21:36:38.217Z,11.13
2022-09-20T21:41:38.152Z,11.09
2022-09-20T21:46:39.644Z,11.02
2022-09-20T21:51:39.116Z,10.94
2022-09-20T21:56:39.822Z,10.85
2022-09-20T22:01:40.635Z,10.76
2022-09-20T22:06:40.258Z,10.66
2022-09-20T22:11:40.423Z,10.57
2022-09-20T22:16:40.206Z,10.48
2022-09-20T22:21:40.078Z,10.38
2022-09-20T22:26:40.141Z,10.26
2022-09-20T22:31:42.334Z,10.15
2022-09-20T22:36:42.101Z,10.06
2022-09-20T22:41:42.272Z,9.99
2022-09-20T22:46:42.329Z,9.92
2022-09-20T22:51:42.133Z,9.83
2022-09-20T22:56:42.123Z,9.73
2022-09-20T23:01:42.415Z,9.64
2022-09-20T23:06:42.135Z,9.55
2022-09-20T23:11:42.294Z,9.47
2022-09-20T23:16:42.232Z,9.41
2022-09-20T23:21:42.148Z,9.37
2022-09-20T23:26:42.120Z,9.35
2022-09-20T23:31:45.565Z,9.34
2022-09-20T23:36:45.172Z,9.31
2022-09-20T23:41:50.560Z,9.27
2022-09-20T23:46:47.177Z,9.23
2022-09-20T23:51:47.161Z,9.20
2022-09-20T23:56:48.179Z,9.17
